sensor_id;sensor_type;location;lat;lon;timestamp;P1;durP1;ratioP1;P2;durP2;ratioP2
25917;SDS011;13899;51.174;4.456;2022-11-23T00:01:27;4.82;;;2.28;;
25917;SDS011;13899;51.174;4.456;2022-11-23T00:03:55;9.40;;;2.35;;
25917;SDS011;13899;51.174;4.456;2022-11-23T00:06:22;10.45;;;1.88;;
25917;SDS011;13899;51.174;4.456;2022-11-23T00:08:49;9.82;;;2.40;;
25917;SDS011;13899;51.174;4.456;2022-11-23T00:11:16;5.72;;;2.22;;
25917;SDS011;13899;51.174;4.456;2022-11-23T00:16:12;7.53;;;2.10;;
25917;SDS011;13899;51.174;4.456;2022-11-23T00:18:39;9.43;;;3.67;;
25917;SDS011;13899;51.174;4.456;2022-11-23T00:21:08;6.18;;;1.88;;
25917;SDS011;13899;51.174;4.456;2022-11-23T00:23:35;7.30;;;1.90;;
25917;SDS011;13899;51.174;4.456;2022-11-23T00:26:01;4.45;;;1.60;;
25917;SDS011;13899;51.174;4.456;2022-11-23T00:28:28;9.95;;;1.85;;
25917;SDS011;13899;51.174;4.456;2022-11-23T00:30:53;8.68;;;1.95;;
25917;SDS011;13899;51.174;4.456;2022-11-23T00:33:19;10.98;;;2.65;;
25917;SDS011;13899;51.174;4.456;2022-11-23T00:35:45;9.02;;;2.22;;
25917;SDS011;13899;51.174;4.456;2022-11-23T00:38:10;8.75;;;2.05;;
25917;SDS011;13899;51.174;4.456;2022-11-23T00:40:36;8.07;;;2.00;;
25917;SDS011;13899;51.174;4.456;2022-11-23T00:43:02;6.10;;;2.25;;
25917;SDS011;13899;51.174;4.456;2022-11-23T00:45:27;11.75;;;3.35;;
25917;SDS011;13899;51.174;4.456;2022-11-23T00:47:53;9.30;;;1.97;;
25917;SDS011;13899;51.174;4.456;2022-11-23T00:50:18;7.60;;;2.72;;
25917;SDS011;13899;51.174;4.456;2022-11-23T00:52:44;10.13;;;2.33;;
25917;SDS011;13899;51.174;4.456;2022-11-23T00:55:10;8.95;;;2.25;;
25917;SDS011;13899;51.174;4.456;2022-11-23T00:57:35;10.23;;;2.93;;
25917;SDS011;13899;51.174;4.456;2022-11-23T01:00:01;12.27;;;3.80;;
25917;SDS011;13899;51.174;4.456;2022-11-23T01:02:27;9.48;;;2.92;;
25917;SDS011;13899;51.174;4.456;2022-11-23T01:04:53;8.13;;;2.05;;
25917;SDS011;13899;51.174;4.456;2022-11-23T01:07:19;8.53;;;2.70;;
25917;SDS011;13899;51.174;4.456;2022-11-23T01:09:44;9.80;;;2.10;;
25917;SDS011;13899;51.174;4.456;2022-11-23T01:12:10;10.25;;;2.00;;
25917;SDS011;13899;51.174;4.456;2022-11-23T01:14:35;8.20;;;2.05;;
25917;SDS011;13899;51.174;4.456;2022-11-23T01:17:01;14.40;;;3.35;;
25917;SDS011;13899;51.174;4.456;2022-11-23T01:19:26;9.23;;;2.53;;
25917;SDS011;13899;51.174;4.456;2022-11-23T01:21:52;8.40;;;2.15;;
25917;SDS011;13899;51.174;4.456;2022-11-23T01:24:19;6.55;;;2.30;;
25917;SDS011;13899;51.174;4.456;2022-11-23T01:26:52;9.60;;;2.13;;
25917;SDS011;13899;51.174;4.456;2022-11-23T01:29:19;10.50;;;2.33;;
25917;SDS011;13899;51.174;4.456;2022-11-23T01:34:11;8.73;;;2.40;;
25917;SDS011;13899;51.174;4.456;2022-11-23T01:36:38;9.65;;;2.72;;
25917;SDS011;13899;51.174;4.456;2022-11-23T01:39:04;7.30;;;1.97;;
25917;SDS011;13899;51.174;4.456;2022-11-23T01:41:33;8.35;;;1.67;;
25917;SDS011;13899;51.174;4.456;2022-11-23T01:44:00;11.75;;;1.90;;
25917;SDS011;13899;51.174;4.456;2022-11-23T01:46:44;8.60;;;2.72;;
25917;SDS011;13899;51.174;4.456;2022-11-23T01:49:10;11.73;;;2.17;;
25917;SDS011;13899;51.174;4.456;2022-11-23T01:51:36;11.85;;;2.72;;
25917;SDS011;13899;51.174;4.456;2022-11-23T01:54:06;13.38;;;2.47;;
25917;SDS011;13899;51.174;4.456;2022-11-23T01:56:38;7.80;;;2.42;;
25917;SDS011;13899;51.174;4.456;2022-11-23T01:59:08;10.48;;;1.80;;
25917;SDS011;13899;51.174;4.456;2022-11-23T02:01:36;10.82;;;2.92;;
25917;SDS011;13899;51.174;4.456;2022-11-23T02:04:02;8.48;;;2.20;;
25917;SDS011;13899;51.174;4.456;2022-11-23T02:06:29;11.55;;;2.78;;
25917;SDS011;13899;51.174;4.456;2022-11-23T02:08:56;9.35;;;1.90;;
25917;SDS011;13899;51.174;4.456;2022-11-23T02:11:22;7.20;;;2.22;;
25917;SDS011;13899;51.174;4.456;2022-11-23T02:13:48;9.82;;;2.17;;
25917;SDS011;13899;51.174;4.456;2022-11-23T02:18:42;4.97;;;1.63;;
25917;SDS011;13899;51.174;4.456;2022-11-23T02:21:10;9.27;;;2.17;;
25917;SDS011;13899;51.174;4.456;2022-11-23T02:26:25;12.55;;;2.97;;
25917;SDS011;13899;51.174;4.456;2022-11-23T02:28:57;6.35;;;1.90;;
25917;SDS011;13899;51.174;4.456;2022-11-23T02:31:23;10.63;;;2.50;;
25917;SDS011;13899;51.174;4.456;2022-11-23T02:33:49;9.68;;;3.15;;
25917;SDS011;13899;51.174;4.456;2022-11-23T02:36:34;7.85;;;2.28;;
25917;SDS011;13899;51.174;4.456;2022-11-23T02:39:27;9.95;;;1.90;;
25917;SDS011;13899;51.174;4.456;2022-11-23T02:41:58;7.80;;;2.25;;
25917;SDS011;13899;51.174;4.456;2022-11-23T02:44:28;10.83;;;2.37;;
25917;SDS011;13899;51.174;4.456;2022-11-23T02:47:02;10.13;;;2.42;;
25917;SDS011;13899;51.174;4.456;2022-11-23T02:49:28;8.93;;;2.08;;
25917;SDS011;13899;51.174;4.456;2022-11-23T02:51:54;9.13;;;2.42;;
25917;SDS011;13899;51.174;4.456;2022-11-23T02:54:20;11.73;;;2.45;;
25917;SDS011;13899;51.174;4.456;2022-11-23T02:56:45;11.70;;;1.65;;
25917;SDS011;13899;51.174;4.456;2022-11-23T02:59:11;5.18;;;1.77;;
25917;SDS011;13899;51.174;4.456;2022-11-23T03:01:37;12.73;;;2.13;;
25917;SDS011;13899;51.174;4.456;2022-11-23T03:06:29;8.70;;;1.65;;
25917;SDS011;13899;51.174;4.456;2022-11-23T03:08:55;10.40;;;2.00;;
25917;SDS011;13899;51.174;4.456;2022-11-23T03:11:21;8.20;;;1.85;;
25917;SDS011;13899;51.174;4.456;2022-11-23T03:13:46;11.30;;;2.03;;
25917;SDS011;13899;51.174;4.456;2022-11-23T03:16:12;10.02;;;2.10;;
25917;SDS011;13899;51.174;4.456;2022-11-23T03:18:37;8.02;;;1.73;;
25917;SDS011;13899;51.174;4.456;2022-11-23T03:21:03;13.27;;;2.88;;
25917;SDS011;13899;51.174;4.456;2022-11-23T03:23:32;11.80;;;2.58;;
25917;SDS011;13899;51.174;4.456;2022-11-23T03:25:59;10.32;;;1.95;;
25917;SDS011;13899;51.174;4.456;2022-11-23T03:28:25;9.73;;;1.83;;
25917;SDS011;13899;51.174;4.456;2022-11-23T03:30:51;8.80;;;2.30;;
25917;SDS011;13899;51.174;4.456;2022-11-23T03:33:18;12.98;;;2.10;;
25917;SDS011;13899;51.174;4.456;2022-11-23T03:35:44;11.23;;;2.20;;
25917;SDS011;13899;51.174;4.456;2022-11-23T03:38:10;13.30;;;2.67;;
25917;SDS011;13899;51.174;4.456;2022-11-23T03:40:36;8.43;;;1.93;;
25917;SDS011;13899;51.174;4.456;2022-11-23T03:43:02;14.30;;;3.13;;
25917;SDS011;13899;51.174;4.456;2022-11-23T03:45:27;10.77;;;2.25;;
25917;SDS011;13899;51.174;4.456;2022-11-23T03:47:53;12.15;;;2.38;;
25917;SDS011;13899;51.174;4.456;2022-11-23T03:50:18;7.40;;;2.07;;
25917;SDS011;13899;51.174;4.456;2022-11-23T03:52:44;10.98;;;2.08;;
25917;SDS011;13899;51.174;4.456;2022-11-23T03:55:12;12.55;;;3.03;;
25917;SDS011;13899;51.174;4.456;2022-11-23T03:57:37;10.52;;;2.40;;
25917;SDS011;13899;51.174;4.456;2022-11-23T04:00:03;14.63;;;2.97;;
25917;SDS011;13899;51.174;4.456;2022-11-23T04:02:29;10.95;;;2.38;;
25917;SDS011;13899;51.174;4.456;2022-11-23T04:04:55;13.83;;;2.43;;
25917;SDS011;13899;51.174;4.456;2022-11-23T04:07:20;12.65;;;1.90;;
25917;SDS011;13899;51.174;4.456;2022-11-23T04:09:46;11.27;;;2.00;;
25917;SDS011;13899;51.174;4.456;2022-11-23T04:12:11;15.37;;;3.10;;
25917;SDS011;13899;51.174;4.456;2022-11-23T04:14:37;12.85;;;2.15;;
25917;SDS011;13899;51.174;4.456;2022-11-23T04:17:03;10.15;;;2.22;;
25917;SDS011;13899;51.174;4.456;2022-11-23T04:19:28;10.48;;;2.60;;
25917;SDS011;13899;51.174;4.456;2022-11-23T04:21:55;9.13;;;1.92;;
25917;SDS011;13899;51.174;4.456;2022-11-23T04:24:20;13.73;;;2.88;;
25917;SDS011;13899;51.174;4.456;2022-11-23T04:26:46;11.77;;;2.00;;
25917;SDS011;13899;51.174;4.456;2022-11-23T04:29:12;10.43;;;2.13;;
25917;SDS011;13899;51.174;4.456;2022-11-23T04:31:37;10.55;;;2.55;;
25917;SDS011;13899;51.174;4.456;2022-11-23T04:34:03;8.30;;;1.60;;
25917;SDS011;13899;51.174;4.456;2022-11-23T04:36:28;14.90;;;2.10;;
25917;SDS011;13899;51.174;4.456;2022-11-23T04:38:54;10.27;;;2.10;;
25917;SDS011;13899;51.174;4.456;2022-11-23T04:41:20;12.67;;;2.07;;
25917;SDS011;13899;51.174;4.456;2022-11-23T04:43:47;8.65;;;2.25;;
25917;SDS011;13899;51.174;4.456;2022-11-23T04:46:13;9.77;;;2.28;;
25917;SDS011;13899;51.174;4.456;2022-11-23T04:48:39;8.30;;;1.70;;
25917;SDS011;13899;51.174;4.456;2022-11-23T04:51:05;11.50;;;2.37;;
25917;SDS011;13899;51.174;4.456;2022-11-23T04:53:31;8.50;;;1.45;;
25917;SDS011;13899;51.174;4.456;2022-11-23T04:55:56;10.40;;;1.90;;
25917;SDS011;13899;51.174;4.456;2022-11-23T04:58:22;6.72;;;2.15;;
25917;SDS011;13899;51.174;4.456;2022-11-23T05:00:48;16.55;;;2.92;;
25917;SDS011;13899;51.174;4.456;2022-11-23T05:03:14;19.77;;;3.17;;
25917;SDS011;13899;51.174;4.456;2022-11-23T05:05:40;8.60;;;2.25;;
25917;SDS011;13899;51.174;4.456;2022-11-23T05:08:06;14.10;;;2.92;;
25917;SDS011;13899;51.174;4.456;2022-11-23T05:10:32;11.32;;;2.97;;
25917;SDS011;13899;51.174;4.456;2022-11-23T05:12:58;13.87;;;2.73;;
25917;SDS011;13899;51.174;4.456;2022-11-23T05:15:23;17.90;;;4.03;;
25917;SDS011;13899;51.174;4.456;2022-11-23T05:17:49;15.37;;;2.93;;
25917;SDS011;13899;51.174;4.456;2022-11-23T05:20:15;17.67;;;2.40;;
25917;SDS011;13899;51.174;4.456;2022-11-23T05:22:41;13.83;;;1.97;;
25917;SDS011;13899;51.174;4.456;2022-11-23T05:25:06;14.87;;;3.17;;
25917;SDS011;13899;51.174;4.456;2022-11-23T05:27:32;18.77;;;3.22;;
25917;SDS011;13899;51.174;4.456;2022-11-23T05:29:58;15.80;;;2.72;;
25917;SDS011;13899;51.174;4.456;2022-11-23T05:32:24;25.13;;;4.40;;
25917;SDS011;13899;51.174;4.456;2022-11-23T05:34:49;17.93;;;3.00;;
25917;SDS011;13899;51.174;4.456;2022-11-23T05:37:15;19.80;;;3.28;;
25917;SDS011;13899;51.174;4.456;2022-11-23T05:39:40;12.82;;;2.78;;
25917;SDS011;13899;51.174;4.456;2022-11-23T05:42:06;9.77;;;2.42;;
25917;SDS011;13899;51.174;4.456;2022-11-23T05:44:32;19.03;;;3.60;;
25917;SDS011;13899;51.174;4.456;2022-11-23T05:46:57;14.10;;;3.23;;
25917;SDS011;13899;51.174;4.456;2022-11-23T05:49:23;14.97;;;2.77;;
25917;SDS011;13899;51.174;4.456;2022-11-23T05:51:49;18.37;;;2.40;;
25917;SDS011;13899;51.174;4.456;2022-11-23T05:54:14;14.13;;;2.57;;
25917;SDS011;13899;51.174;4.456;2022-11-23T05:56:40;15.40;;;2.67;;
25917;SDS011;13899;51.174;4.456;2022-11-23T05:59:06;15.82;;;2.50;;
25917;SDS011;13899;51.174;4.456;2022-11-23T06:01:32;15.57;;;3.83;;
25917;SDS011;13899;51.174;4.456;2022-11-23T06:03:58;15.02;;;2.65;;
25917;SDS011;13899;51.174;4.456;2022-11-23T06:06:24;15.07;;;3.10;;
25917;SDS011;13899;51.174;4.456;2022-11-23T06:08:50;13.60;;;3.13;;
25917;SDS011;13899;51.174;4.456;2022-11-23T06:11:15;14.38;;;3.60;;
25917;SDS011;13899;51.174;4.456;2022-11-23T06:13:41;16.88;;;3.10;;
25917;SDS011;13899;51.174;4.456;2022-11-23T06:16:07;12.50;;;2.05;;
25917;SDS011;13899;51.174;4.456;2022-11-23T06:18:32;8.97;;;2.30;;
25917;SDS011;13899;51.174;4.456;2022-11-23T06:20:58;16.60;;;2.58;;
25917;SDS011;13899;51.174;4.456;2022-11-23T06:23:25;10.85;;;3.78;;
25917;SDS011;13899;51.174;4.456;2022-11-23T06:25:51;13.20;;;2.33;;
25917;SDS011;13899;51.174;4.456;2022-11-23T06:28:16;14.95;;;2.92;;
25917;SDS011;13899;51.174;4.456;2022-11-23T06:30:42;11.50;;;2.17;;
25917;SDS011;13899;51.174;4.456;2022-11-23T06:33:07;9.95;;;3.28;;
25917;SDS011;13899;51.174;4.456;2022-11-23T06:35:33;10.73;;;2.22;;
25917;SDS011;13899;51.174;4.456;2022-11-23T06:37:59;10.77;;;3.38;;
25917;SDS011;13899;51.174;4.456;2022-11-23T06:40:25;18.88;;;3.45;;
25917;SDS011;13899;51.174;4.456;2022-11-23T06:42:56;14.48;;;3.60;;
25917;SDS011;13899;51.174;4.456;2022-11-23T06:45:22;10.73;;;2.13;;
25917;SDS011;13899;51.174;4.456;2022-11-23T06:47:48;14.97;;;2.47;;
25917;SDS011;13899;51.174;4.456;2022-11-23T06:50:14;8.23;;;2.50;;
25917;SDS011;13899;51.174;4.456;2022-11-23T06:52:39;19.93;;;3.00;;
25917;SDS011;13899;51.174;4.456;2022-11-23T06:55:05;17.80;;;2.23;;
25917;SDS011;13899;51.174;4.456;2022-11-23T06:57:31;10.90;;;2.97;;
25917;SDS011;13899;51.174;4.456;2022-11-23T06:59:56;9.67;;;2.53;;
25917;SDS011;13899;51.174;4.456;2022-11-23T07:02:22;21.07;;;4.60;;
25917;SDS011;13899;51.174;4.456;2022-11-23T07:04:49;25.00;;;3.67;;
25917;SDS011;13899;51.174;4.456;2022-11-23T07:07:16;10.80;;;3.13;;
25917;SDS011;13899;51.174;4.456;2022-11-23T07:09:41;14.20;;;2.83;;
25917;SDS011;13899;51.174;4.456;2022-11-23T07:12:07;16.43;;;3.03;;
25917;SDS011;13899;51.174;4.456;2022-11-23T07:14:32;17.47;;;3.37;;
25917;SDS011;13899;51.174;4.456;2022-11-23T07:16:58;11.13;;;2.60;;
25917;SDS011;13899;51.174;4.456;2022-11-23T07:19:24;10.77;;;2.72;;
25917;SDS011;13899;51.174;4.456;2022-11-23T07:21:49;10.33;;;2.83;;
25917;SDS011;13899;51.174;4.456;2022-11-23T07:24:15;14.18;;;2.60;;
25917;SDS011;13899;51.174;4.456;2022-11-23T07:26:40;9.47;;;2.37;;
25917;SDS011;13899;51.174;4.456;2022-11-23T07:29:06;16.88;;;3.60;;
25917;SDS011;13899;51.174;4.456;2022-11-23T07:31:32;12.07;;;2.30;;
25917;SDS011;13899;51.174;4.456;2022-11-23T07:33:58;15.00;;;2.70;;
25917;SDS011;13899;51.174;4.456;2022-11-23T07:36:23;18.07;;;4.13;;
25917;SDS011;13899;51.174;4.456;2022-11-23T07:38:49;14.27;;;3.20;;
25917;SDS011;13899;51.174;4.456;2022-11-23T07:41:14;13.30;;;3.88;;
25917;SDS011;13899;51.174;4.456;2022-11-23T07:43:40;6.07;;;2.45;;
25917;SDS011;13899;51.174;4.456;2022-11-23T07:46:06;9.07;;;2.50;;
25917;SDS011;13899;51.174;4.456;2022-11-23T07:48:31;18.50;;;2.90;;
25917;SDS011;13899;51.174;4.456;2022-11-23T07:50:57;12.40;;;2.30;;
25917;SDS011;13899;51.174;4.456;2022-11-23T07:53:22;10.50;;;2.83;;
25917;SDS011;13899;51.174;4.456;2022-11-23T07:55:48;17.90;;;5.22;;
25917;SDS011;13899;51.174;4.456;2022-11-23T07:58:14;13.33;;;3.10;;
25917;SDS011;13899;51.174;4.456;2022-11-23T08:00:39;15.77;;;2.53;;
25917;SDS011;13899;51.174;4.456;2022-11-23T08:03:05;14.70;;;3.40;;
25917;SDS011;13899;51.174;4.456;2022-11-23T08:05:31;11.10;;;2.63;;
25917;SDS011;13899;51.174;4.456;2022-11-23T08:07:58;16.33;;;3.30;;
25917;SDS011;13899;51.174;4.456;2022-11-23T08:10:26;7.55;;;2.65;;
25917;SDS011;13899;51.174;4.456;2022-11-23T08:12:52;16.25;;;3.60;;
25917;SDS011;13899;51.174;4.456;2022-11-23T08:15:21;12.02;;;4.28;;
25917;SDS011;13899;51.174;4.456;2022-11-23T08:17:48;7.50;;;2.08;;
25917;SDS011;13899;51.174;4.456;2022-11-23T08:20:13;12.63;;;3.00;;
25917;SDS011;13899;51.174;4.456;2022-11-23T08:22:39;12.55;;;2.75;;
25917;SDS011;13899;51.174;4.456;2022-11-23T08:25:05;21.52;;;4.30;;
25917;SDS011;13899;51.174;4.456;2022-11-23T08:27:31;23.03;;;6.33;;
25917;SDS011;13899;51.174;4.456;2022-11-23T08:29:57;9.90;;;2.90;;
25917;SDS011;13899;51.174;4.456;2022-11-23T08:32:22;10.97;;;3.30;;
25917;SDS011;13899;51.174;4.456;2022-11-23T08:34:48;13.85;;;2.45;;
25917;SDS011;13899;51.174;4.456;2022-11-23T08:37:13;11.00;;;3.05;;
25917;SDS011;13899;51.174;4.456;2022-11-23T08:39:39;14.00;;;3.03;;
25917;SDS011;13899;51.174;4.456;2022-11-23T08:42:04;11.63;;;3.17;;
25917;SDS011;13899;51.174;4.456;2022-11-23T08:44:30;11.07;;;3.05;;
25917;SDS011;13899;51.174;4.456;2022-11-23T08:46:56;9.07;;;3.58;;
25917;SDS011;13899;51.174;4.456;2022-11-23T08:49:21;8.33;;;3.67;;
25917;SDS011;13899;51.174;4.456;2022-11-23T08:51:47;12.80;;;2.80;;
25917;SDS011;13899;51.174;4.456;2022-11-23T08:54:12;14.90;;;3.47;;
25917;SDS011;13899;51.174;4.456;2022-11-23T08:56:38;11.98;;;3.10;;
25917;SDS011;13899;51.174;4.456;2022-11-23T08:59:03;8.65;;;2.65;;
25917;SDS011;13899;51.174;4.456;2022-11-23T09:01:29;8.98;;;2.45;;
25917;SDS011;13899;51.174;4.456;2022-11-23T09:03:54;10.67;;;3.00;;
25917;SDS011;13899;51.174;4.456;2022-11-23T09:06:20;9.33;;;3.13;;
25917;SDS011;13899;51.174;4.456;2022-11-23T09:08:52;11.95;;;3.40;;
25917;SDS011;13899;51.174;4.456;2022-11-23T09:11:19;11.27;;;2.72;;
25917;SDS011;13899;51.174;4.456;2022-11-23T09:13:44;14.90;;;3.40;;
25917;SDS011;13899;51.174;4.456;2022-11-23T09:16:10;8.88;;;2.35;;
25917;SDS011;13899;51.174;4.456;2022-11-23T09:18:35;11.52;;;2.50;;
25917;SDS011;13899;51.174;4.456;2022-11-23T09:21:04;11.48;;;2.38;;
25917;SDS011;13899;51.174;4.456;2022-11-23T09:23:30;6.90;;;2.33;;
25917;SDS011;13899;51.174;4.456;2022-11-23T09:25:59;14.47;;;3.83;;
25917;SDS011;13899;51.174;4.456;2022-11-23T09:28:26;11.63;;;2.55;;
25917;SDS011;13899;51.174;4.456;2022-11-23T09:30:52;8.02;;;2.50;;
25917;SDS011;13899;51.174;4.456;2022-11-23T09:33:19;11.38;;;2.80;;
25917;SDS011;13899;51.174;4.456;2022-11-23T09:35:45;12.75;;;2.58;;
25917;SDS011;13899;51.174;4.456;2022-11-23T09:38:11;16.25;;;3.78;;
25917;SDS011;13899;51.174;4.456;2022-11-23T09:40:37;7.10;;;2.53;;
25917;SDS011;13899;51.174;4.456;2022-11-23T09:43:16;8.38;;;2.88;;
25917;SDS011;13899;51.174;4.456;2022-11-23T09:46:12;8.95;;;3.03;;
25917;SDS011;13899;51.174;4.456;2022-11-23T09:49:02;15.15;;;3.75;;
25917;SDS011;13899;51.174;4.456;2022-11-23T09:51:42;7.70;;;2.40;;
25917;SDS011;13899;51.174;4.456;2022-11-23T09:56:39;9.43;;;3.13;;
25917;SDS011;13899;51.174;4.456;2022-11-23T09:59:11;7.55;;;2.80;;
25917;SDS011;13899;51.174;4.456;2022-11-23T10:01:47;7.03;;;2.53;;
25917;SDS011;13899;51.174;4.456;2022-11-23T10:04:16;8.20;;;2.80;;
25917;SDS011;13899;51.174;4.456;2022-11-23T10:06:43;5.13;;;2.00;;
25917;SDS011;13899;51.174;4.456;2022-11-23T10:09:22;6.82;;;1.88;;
25917;SDS011;13899;51.174;4.456;2022-11-23T10:12:00;8.38;;;2.72;;
25917;SDS011;13899;51.174;4.456;2022-11-23T10:22:59;7.10;;;1.92;;
25917;SDS011;13899;51.174;4.456;2022-11-23T10:25:28;15.63;;;2.20;;
25917;SDS011;13899;51.174;4.456;2022-11-23T10:27:59;4.45;;;1.70;;
25917;SDS011;13899;51.174;4.456;2022-11-23T10:30:28;10.27;;;2.45;;
25917;SDS011;13899;51.174;4.456;2022-11-23T10:35:28;6.75;;;1.63;;
25917;SDS011;13899;51.174;4.456;2022-11-23T10:38:09;5.95;;;2.03;;
25917;SDS011;13899;51.174;4.456;2022-11-23T10:40:44;6.10;;;1.50;;
25917;SDS011;13899;51.174;4.456;2022-11-23T10:43:16;3.42;;;1.23;;
25917;SDS011;13899;51.174;4.456;2022-11-23T10:45:46;4.85;;;1.83;;
25917;SDS011;13899;51.174;4.456;2022-11-23T10:48:12;5.22;;;1.92;;
25917;SDS011;13899;51.174;4.456;2022-11-23T10:51:13;5.97;;;1.85;;
25917;SDS011;13899;51.174;4.456;2022-11-23T10:53:52;4.93;;;1.45;;
25917;SDS011;13899;51.174;4.456;2022-11-23T10:56:39;6.93;;;1.88;;
25917;SDS011;13899;51.174;4.456;2022-11-23T10:59:24;5.72;;;1.45;;
25917;SDS011;13899;51.174;4.456;2022-11-23T11:04:45;6.38;;;2.03;;
25917;SDS011;13899;51.174;4.456;2022-11-23T11:09:50;3.55;;;1.67;;
25917;SDS011;13899;51.174;4.456;2022-11-23T11:12:18;5.30;;;1.35;;
25917;SDS011;13899;51.174;4.456;2022-11-23T11:17:34;3.42;;;1.23;;
25917;SDS011;13899;51.174;4.456;2022-11-23T11:20:02;5.90;;;1.20;;
25917;SDS011;13899;51.174;4.456;2022-11-23T11:22:48;5.82;;;1.45;;
25917;SDS011;13899;51.174;4.456;2022-11-23T11:27:54;3.15;;;1.10;;
25917;SDS011;13899;51.174;4.456;2022-11-23T11:30:24;5.00;;;1.73;;
25917;SDS011;13899;51.174;4.456;2022-11-23T11:33:16;5.63;;;1.85;;
25917;SDS011;13899;51.174;4.456;2022-11-23T11:35:48;4.20;;;1.40;;
25917;SDS011;13899;51.174;4.456;2022-11-23T11:38:32;5.63;;;1.48;;
25917;SDS011;13899;51.174;4.456;2022-11-23T11:41:10;4.53;;;1.67;;
25917;SDS011;13899;51.174;4.456;2022-11-23T11:43:40;5.70;;;1.50;;
25917;SDS011;13899;51.174;4.456;2022-11-23T11:46:19;4.93;;;1.58;;
25917;SDS011;13899;51.174;4.456;2022-11-23T11:48:54;4.72;;;1.17;;
25917;SDS011;13899;51.174;4.456;2022-11-23T11:51:33;4.60;;;1.40;;
25917;SDS011;13899;51.174;4.456;2022-11-23T11:56:36;8.07;;;2.55;;
25917;SDS011;13899;51.174;4.456;2022-11-23T12:01:38;4.53;;;1.25;;
25917;SDS011;13899;51.174;4.456;2022-11-23T12:04:17;6.00;;;1.30;;
25917;SDS011;13899;51.174;4.456;2022-11-23T12:06:53;7.38;;;2.13;;
25917;SDS011;13899;51.174;4.456;2022-11-23T12:09:43;5.80;;;1.17;;
25917;SDS011;13899;51.174;4.456;2022-11-23T12:12:13;4.65;;;1.60;;
25917;SDS011;13899;51.174;4.456;2022-11-23T12:14:42;7.18;;;1.55;;
25917;SDS011;13899;51.174;4.456;2022-11-23T12:20:06;5.53;;;1.40;;
25917;SDS011;13899;51.174;4.456;2022-11-23T12:22:44;1.92;;;1.27;;
25917;SDS011;13899;51.174;4.456;2022-11-23T12:25:32;6.93;;;1.90;;
25917;SDS011;13899;51.174;4.456;2022-11-23T12:28:18;8.55;;;1.92;;
25917;SDS011;13899;51.174;4.456;2022-11-23T12:33:52;4.07;;;1.40;;
25917;SDS011;13899;51.174;4.456;2022-11-23T12:39:23;7.90;;;2.85;;
25917;SDS011;13899;51.174;4.456;2022-11-23T12:47:40;6.00;;;1.48;;
25917;SDS011;13899;51.174;4.456;2022-11-23T12:53:14;13.15;;;2.15;;
25917;SDS011;13899;51.174;4.456;2022-11-23T12:55:53;9.38;;;1.90;;
25917;SDS011;13899;51.174;4.456;2022-11-23T12:58:39;5.50;;;1.73;;
25917;SDS011;13899;51.174;4.456;2022-11-23T13:07:11;8.07;;;1.77;;
25917;SDS011;13899;51.174;4.456;2022-11-23T13:15:16;9.48;;;2.00;;
25917;SDS011;13899;51.174;4.456;2022-11-23T13:23:20;8.60;;;2.45;;
25917;SDS011;13899;51.174;4.456;2022-11-23T13:28:39;7.15;;;1.65;;
25917;SDS011;13899;51.174;4.456;2022-11-23T13:33:40;6.38;;;1.98;;
25917;SDS011;13899;51.174;4.456;2022-11-23T13:36:11;6.80;;;2.83;;
25917;SDS011;13899;51.174;4.456;2022-11-23T13:38:58;8.40;;;2.70;;
25917;SDS011;13899;51.174;4.456;2022-11-23T13:42:10;3.88;;;1.88;;
25917;SDS011;13899;51.174;4.456;2022-11-23T13:44:26;4.60;;;2.00;;
25917;SDS011;13899;51.174;4.456;2022-11-23T13:47:17;7.40;;;1.80;;
25917;SDS011;13899;51.174;4.456;2022-11-23T13:49:48;7.78;;;3.10;;
25917;SDS011;13899;51.174;4.456;2022-11-23T13:57:38;4.68;;;1.80;;
25917;SDS011;13899;51.174;4.456;2022-11-23T14:11:35;7.78;;;3.03;;
25917;SDS011;13899;51.174;4.456;2022-11-23T14:14:15;2.40;;;1.38;;
25917;SDS011;13899;51.174;4.456;2022-11-23T14:22:37;3.60;;;2.03;;
25917;SDS011;13899;51.174;4.456;2022-11-23T14:33:50;4.72;;;1.80;;
25917;SDS011;13899;51.174;4.456;2022-11-23T14:37:01;5.63;;;1.92;;
25917;SDS011;13899;51.174;4.456;2022-11-23T14:39:39;5.65;;;2.10;;
25917;SDS011;13899;51.174;4.456;2022-11-23T14:42:28;3.95;;;1.60;;
25917;SDS011;13899;51.174;4.456;2022-11-23T14:44:56;4.07;;;2.05;;
25917;SDS011;13899;51.174;4.456;2022-11-23T14:47:28;5.93;;;2.30;;
25917;SDS011;13899;51.174;4.456;2022-11-23T14:49:55;4.57;;;2.00;;
25917;SDS011;13899;51.174;4.456;2022-11-23T14:52:31;2.67;;;1.80;;
25917;SDS011;13899;51.174;4.456;2022-11-23T14:55:00;3.65;;;1.88;;
25917;SDS011;13899;51.174;4.456;2022-11-23T14:57:46;4.13;;;1.95;;
25917;SDS011;13899;51.174;4.456;2022-11-23T15:00:24;3.54;;;1.76;;
25917;SDS011;13899;51.174;4.456;2022-11-23T15:03:12;2.90;;;1.83;;
25917;SDS011;13899;51.174;4.456;2022-11-23T15:05:43;2.88;;;1.45;;
25917;SDS011;13899;51.174;4.456;2022-11-23T15:08:16;2.85;;;2.17;;
25917;SDS011;13899;51.174;4.456;2022-11-23T15:13:54;2.08;;;1.67;;
25917;SDS011;13899;51.174;4.456;2022-11-23T15:16:26;4.93;;;1.90;;
25917;SDS011;13899;51.174;4.456;2022-11-23T15:18:51;4.17;;;2.13;;
25917;SDS011;13899;51.174;4.456;2022-11-23T15:21:21;2.67;;;1.47;;
25917;SDS011;13899;51.174;4.456;2022-11-23T15:23:51;3.50;;;1.80;;
25917;SDS011;13899;51.174;4.456;2022-11-23T15:26:25;5.55;;;2.35;;
25917;SDS011;13899;51.174;4.456;2022-11-23T15:28:53;2.53;;;1.63;;
25917;SDS011;13899;51.174;4.456;2022-11-23T15:33:52;3.53;;;2.05;;
25917;SDS011;13899;51.174;4.456;2022-11-23T15:36:29;3.42;;;2.13;;
25917;SDS011;13899;51.174;4.456;2022-11-23T15:39:00;4.38;;;2.08;;
25917;SDS011;13899;51.174;4.456;2022-11-23T15:41:32;4.85;;;2.13;;
25917;SDS011;13899;51.174;4.456;2022-11-23T15:44:00;4.75;;;2.38;;
25917;SDS011;13899;51.174;4.456;2022-11-23T15:46:38;4.07;;;2.20;;
25917;SDS011;13899;51.174;4.456;2022-11-23T15:49:04;2.58;;;2.00;;
25917;SDS011;13899;51.174;4.456;2022-11-23T15:51:31;6.38;;;2.22;;
25917;SDS011;13899;51.174;4.456;2022-11-23T15:54:02;2.70;;;2.05;;
25917;SDS011;13899;51.174;4.456;2022-11-23T15:58:58;6.60;;;3.13;;
25917;SDS011;13899;51.174;4.456;2022-11-23T16:01:29;4.32;;;2.03;;
25917;SDS011;13899;51.174;4.456;2022-11-23T16:03:57;6.15;;;3.10;;
25917;SDS011;13899;51.174;4.456;2022-11-23T16:07:24;8.90;;;2.63;;
25917;SDS011;13899;51.174;4.456;2022-11-23T16:10:41;6.88;;;2.95;;
25917;SDS011;13899;51.174;4.456;2022-11-23T16:13:04;4.55;;;2.55;;
25917;SDS011;13899;51.174;4.456;2022-11-23T16:16:04;3.65;;;2.50;;
25917;SDS011;13899;51.174;4.456;2022-11-23T16:19:20;4.28;;;3.60;;
25917;SDS011;13899;51.174;4.456;2022-11-23T16:22:17;5.90;;;3.50;;
25917;SDS011;13899;51.174;4.456;2022-11-23T16:25:15;4.38;;;2.85;;
25917;SDS011;13899;51.174;4.456;2022-11-23T16:28:05;3.90;;;3.05;;
25917;SDS011;13899;51.174;4.456;2022-11-23T16:30:58;5.10;;;3.55;;
25917;SDS011;13899;51.174;4.456;2022-11-23T16:33:24;5.60;;;3.20;;
25917;SDS011;13899;51.174;4.456;2022-11-23T16:35:52;5.10;;;3.55;;
25917;SDS011;13899;51.174;4.456;2022-11-23T16:38:24;3.70;;;3.30;;
25917;SDS011;13899;51.174;4.456;2022-11-23T16:40:55;6.13;;;3.53;;
25917;SDS011;13899;51.174;4.456;2022-11-23T16:43:21;6.00;;;3.97;;
25917;SDS011;13899;51.174;4.456;2022-11-23T16:45:47;5.17;;;3.60;;
25917;SDS011;13899;51.174;4.456;2022-11-23T16:50:50;6.68;;;3.92;;
25917;SDS011;13899;51.174;4.456;2022-11-23T16:53:21;7.13;;;4.97;;
25917;SDS011;13899;51.174;4.456;2022-11-23T16:55:51;8.07;;;4.30;;
25917;SDS011;13899;51.174;4.456;2022-11-23T16:58:59;7.00;;;5.00;;
25917;SDS011;13899;51.174;4.456;2022-11-23T17:02:03;6.32;;;4.45;;
25917;SDS011;13899;51.174;4.456;2022-11-23T17:04:57;8.68;;;4.70;;